Time;durP1;ratioP1;P1;durP2;ratioP2;P2;SDS_P1;SDS_P2;PMS_P1;PMS_P2;Temp;Humidity;BMP_temperature;BMP_pressure;BME280_temperature;BME280_humidity;BME280_pressure;Samples;Min_cycle;Max_cycle;Signal;HPM_P1;HPM_P2
2021/05/30 00:00:17;;;;;;;38.03;23.35;;;9.90;98.80;;;;;;2055990;28;20119;-70
2021/05/30 00:01:18;;;;;;;43.05;26.30;;;9.90;98.80;;;;;;2063737;28;20069;-70
2021/05/30 00:02:19;;;;;;;45.65;26.08;;;9.90;99.00;;;;;;2063874;28;20177;-71
2021/05/30 00:03:19;;;;;;;42.20;25.30;;;9.90;98.90;;;;;;2063786;28;20084;-71
2021/05/30 00:04:20;;;;;;;42.80;25.48;;;9.90;98.90;;;;;;2053711;28;20085;-71
2021/05/30 00:05:21;;;;;;;42.08;25.58;;;9.90;99.00;;;;;;2053070;28;20031;-71
2021/05/30 00:06:22;;;;;;;36.35;23.90;;;9.90;99.00;;;;;;2063643;28;20037;-71
2021/05/30 00:07:23;;;;;;;35.83;23.23;;;9.80;99.00;;;;;;2063380;28;20070;-70
2021/05/30 00:08:24;;;;;;;35.40;22.85;;;9.80;98.90;;;;;;2063766;28;20038;-72
2021/05/30 00:09:24;;;;;;;36.65;23.98;;;9.80;98.90;;;;;;2055210;28;20039;-72
2021/05/30 00:10:26;;;;;;;41.20;25.20;;;9.80;99.00;;;;;;2055073;28;20041;-72
2021/05/30 00:11:26;;;;;;;37.55;23.65;;;9.80;99.00;;;;;;2063743;28;20049;-72
2021/05/30 00:12:27;;;;;;;37.75;24.02;;;9.80;99.00;;;;;;2063598;28;20088;-72
2021/05/30 00:13:27;;;;;;;43.60;25.58;;;9.70;99.00;;;;;;2063666;28;20078;-72
2021/05/30 00:14:28;;;;;;;37.30;23.55;;;9.80;99.10;;;;;;2062808;28;20026;-71
2021/05/30 00:15:29;;;;;;;39.10;24.05;;;9.70;98.90;;;;;;2063587;28;20394;-71
2021/05/30 00:16:31;;;;;;;37.35;22.80;;;9.70;99.00;;;;;;2063545;28;20022;-72
2021/05/30 00:17:32;;;;;;;36.35;22.80;;;9.70;99.00;;;;;;2063629;28;20401;-73
2021/05/30 00:18:32;;;;;;;33.78;22.15;;;9.70;99.10;;;;;;2063800;28;20478;-73
2021/05/30 00:19:33;;;;;;;34.05;21.73;;;9.70;99.00;;;;;;2063776;28;20022;-71
2021/05/30 00:20:34;;;;;;;38.33;22.27;;;9.70;99.10;;;;;;2063687;28;20117;-71
2021/05/30 00:21:34;;;;;;;32.10;21.15;;;9.70;99.00;;;;;;2063581;28;20022;-73
2021/05/30 00:22:35;;;;;;;36.88;22.10;;;9.70;99.10;;;;;;2063623;28;20034;-70
2021/05/30 00:23:35;;;;;;;34.92;21.45;;;9.70;99.20;;;;;;2063617;28;20026;-72
2021/05/30 00:24:36;;;;;;;39.15;23.10;;;9.70;99.30;;;;;;2053964;28;20039;-71
2021/05/30 00:25:37;;;;;;;35.35;22.77;;;9.60;99.30;;;;;;2054785;28;20022;-72
2021/05/30 00:26:38;;;;;;;37.25;22.83;;;9.70;99.20;;;;;;2063640;28;20753;-72
2021/05/30 00:27:38;;;;;;;37.72;23.48;;;9.60;99.20;;;;;;2063924;28;20065;-72
2021/05/30 00:28:39;;;;;;;37.33;23.48;;;9.70;99.30;;;;;;2065026;28;20466;-70
2021/05/30 00:29:40;;;;;;;39.33;24.08;;;9.60;99.30;;;;;;2065073;28;20035;-73
2021/05/30 00:30:40;;;;;;;38.10;24.05;;;9.60;99.40;;;;;;2064919;28;20027;-73
2021/05/30 00:31:41;;;;;;;36.42;23.35;;;9.60;99.50;;;;;;2064961;28;20034;-73
2021/05/30 00:32:42;;;;;;;38.90;23.42;;;9.60;99.60;;;;;;2065178;28;20018;-72
2021/05/30 00:33:44;;;;;;;37.97;23.52;;;9.60;99.60;;;;;;2065105;28;20501;-70
2021/05/30 00:34:45;;;;;;;36.78;22.88;;;9.60;99.70;;;;;;2063541;28;20100;-73
2021/05/30 00:35:45;;;;;;;39.13;23.90;;;9.60;99.80;;;;;;2064295;28;20081;-72
2021/05/30 00:36:47;;;;;;;37.17;23.60;;;9.60;99.90;;;;;;2065015;28;20061;-72
2021/05/30 00:37:47;;;;;;;37.00;22.98;;;9.50;99.90;;;;;;2065023;28;20022;-73
2021/05/30 00:38:48;;;;;;;35.08;22.60;;;9.50;99.90;;;;;;2065076;28;20105;-71
2021/05/30 00:39:49;;;;;;;36.40;22.85;;;9.50;99.90;;;;;;2065239;28;20379;-72
2021/05/30 00:40:51;;;;;;;34.70;22.05;;;9.50;99.90;;;;;;2065081;28;20027;-72
2021/05/30 00:41:51;;;;;;;39.63;23.92;;;9.50;99.90;;;;;;2065127;28;20102;-72
2021/05/30 00:42:52;;;;;;;37.65;22.80;;;9.40;99.90;;;;;;2064968;28;20375;-71
2021/05/30 00:43:54;;;;;;;37.25;23.75;;;9.40;99.90;;;;;;2056310;28;20779;-71
2021/05/30 00:44:55;;;;;;;35.92;23.13;;;9.40;99.90;;;;;;2055506;28;20070;-72
2021/05/30 00:45:56;;;;;;;35.72;22.35;;;9.40;99.90;;;;;;2064956;28;20046;-72
2021/05/30 00:46:58;;;;;;;37.97;23.10;;;9.40;99.90;;;;;;2064978;28;20041;-72
2021/05/30 00:47:59;;;;;;;36.85;22.85;;;9.30;99.90;;;;;;2064940;28;20046;-72
2021/05/30 00:48:59;;;;;;;37.38;22.65;;;9.30;99.90;;;;;;2065126;28;20084;-72
2021/05/30 00:50:00;;;;;;;34.47;21.85;;;9.30;99.90;;;;;;2065057;28;20038;-73
2021/05/30 00:51:01;;;;;;;37.88;23.52;;;9.30;99.90;;;;;;2065229;28;20114;-72
2021/05/30 00:52:05;;;;;;;37.70;22.88;;;9.30;99.90;;;;;;2056261;28;20189;-70
2021/05/30 00:53:06;;;;;;;35.28;22.08;;;9.30;99.90;;;;;;2056847;28;20039;-73
2021/05/30 00:54:08;;;;;;;34.00;21.92;;;9.20;99.90;;;;;;2063515;28;20037;-71
2021/05/30 00:55:11;;;;;;;35.72;21.73;;;9.30;99.90;;;;;;2064959;28;20125;-73
2021/05/30 00:56:14;;;;;;;33.08;20.60;;;9.30;99.90;;;;;;2064978;28;20018;-72
2021/05/30 00:57:14;;;;;;;35.25;21.35;;;9.20;99.90;;;;;;2064974;28;20034;-72
2021/05/30 00:58:15;;;;;;;35.25;21.15;;;9.20;99.90;;;;;;2056390;28;20042;-71
2021/05/30 00:59:16;;;;;;;31.90;19.65;;;9.30;99.90;;;;;;2056287;28;20027;-72
2021/05/30 01:00:17;;;;;;;39.63;23.13;;;9.20;99.90;;;;;;2064652;28;20731;-72
2021/05/30 01:01:18;;;;;;;33.20;21.27;;;9.20;99.90;;;;;;2064189;28;20040;-71
2021/05/30 01:02:18;;;;;;;34.03;21.25;;;9.20;99.90;;;;;;2056073;28;20514;-71
2021/05/30 01:03:19;;;;;;;36.15;21.77;;;9.20;99.90;;;;;;2056190;28;20034;-72
2021/05/30 01:04:19;;;;;;;34.47;21.08;;;9.30;99.90;;;;;;2063750;28;20077;-72
2021/05/30 01:05:21;;;;;;;34.17;21.73;;;9.20;99.90;;;;;;2062949;28;20066;-72
2021/05/30 01:06:24;;;;;;;35.38;21.27;;;9.20;99.90;;;;;;2064792;28;20034;-71
2021/05/30 01:07:25;;;;;;;31.20;19.95;;;9.20;99.90;;;;;;2064836;28;20124;-70
2021/05/30 01:08:26;;;;;;;33.65;20.50;;;9.20;99.90;;;;;;2056174;28;20039;-72
2021/05/30 01:09:28;;;;;;;29.92;18.85;;;9.20;99.90;;;;;;2056190;28;20027;-71
2021/05/30 01:10:33;;;;;;;30.45;18.95;;;9.20;99.90;;;;;;2064927;28;20081;-71
2021/05/30 01:11:35;;;;;;;28.00;17.92;;;9.10;99.80;;;;;;2064858;28;20496;-73
2021/05/30 01:12:35;;;;;;;27.23;17.52;;;9.10;99.60;;;;;;2064891;28;20038;-73
2021/05/30 01:13:37;;;;;;;27.45;17.95;;;9.10;99.40;;;;;;2064777;28;20122;-72
2021/05/30 01:14:38;;;;;;;26.45;17.33;;;9.10;99.20;;;;;;2063945;28;20026;-70
2021/05/30 01:15:39;;;;;;;25.35;16.55;;;9.10;99.10;;;;;;2064741;28;20497;-71
2021/05/30 01:16:40;;;;;;;23.35;15.27;;;9.00;99.10;;;;;;2064832;28;20331;-70
2021/05/30 01:17:41;;;;;;;24.55;15.68;;;9.00;98.80;;;;;;2064822;28;20036;-70
2021/05/30 01:18:43;;;;;;;21.65;14.75;;;9.00;98.50;;;;;;2064827;28;20462;-71
2021/05/30 01:19:46;;;;;;;22.50;14.80;;;9.00;98.20;;;;;;2064810;28;20033;-72
2021/05/30 01:20:47;;;;;;;21.85;14.18;;;9.00;98.10;;;;;;2064940;28;20058;-73
2021/05/30 01:21:48;;;;;;;21.17;14.07;;;8.90;97.90;;;;;;2064800;28;20030;-72
2021/05/30 01:22:49;;;;;;;19.23;13.35;;;8.90;97.30;;;;;;2064873;28;20046;-72
2021/05/30 01:23:55;;;;;;;19.20;12.93;;;8.90;97.00;;;;;;2064796;28;20122;-71
2021/05/30 01:24:56;;;;;;;22.08;12.95;;;9.00;96.30;;;;;;2063998;28;20034;-71
2021/05/30 01:25:56;;;;;;;20.48;12.85;;;9.00;95.90;;;;;;2064931;28;20030;-71
2021/05/30 01:26:57;;;;;;;17.80;12.60;;;8.90;95.40;;;;;;2056287;28;20045;-71
2021/05/30 01:27:57;;;;;;;18.23;12.40;;;8.90;95.40;;;;;;2056049;28;20035;-71
2021/05/30 01:28:58;;;;;;;17.25;11.75;;;9.00;94.90;;;;;;2065093;28;20033;-71
2021/05/30 01:29:59;;;;;;;17.45;12.23;;;9.00;94.90;;;;;;2065052;28;20510;-72
2021/05/30 01:30:59;;;;;;;20.33;12.13;;;9.00;94.80;;;;;;2065142;28;20041;-72
2021/05/30 01:32:00;;;;;;;18.60;12.30;;;9.00;94.60;;;;;;2064803;28;20038;-72
2021/05/30 01:33:02;;;;;;;19.80;13.13;;;9.00;94.60;;;;;;2064625;28;20023;-71
2021/05/30 01:34:03;;;;;;;18.48;12.82;;;9.00;94.70;;;;;;2064633;28;20108;-72
2021/05/30 01:35:05;;;;;;;21.80;13.80;;;9.00;95.10;;;;;;2064227;28;20022;-72
2021/05/30 01:36:06;;;;;;;19.65;13.98;;;9.00;95.60;;;;;;2064673;28;20038;-72
2021/05/30 01:37:06;;;;;;;19.75;13.55;;;8.90;95.60;;;;;;2064798;28;20030;-71
2021/05/30 01:38:07;;;;;;;19.92;13.20;;;8.90;95.60;;;;;;2064648;28;20034;-72
2021/05/30 01:39:07;;;;;;;20.50;13.85;;;8.90;95.60;;;;;;2064490;28;20030;-73
2021/05/30 01:40:09;;;;;;;21.20;13.98;;;8.90;95.60;;;;;;2063963;28;20105;-72
2021/05/30 01:41:10;;;;;;;22.77;14.18;;;8.90;95.60;;;;;;2064621;28;20030;-72
2021/05/30 01:42:10;;;;;;;26.00;15.63;;;8.90;96.00;;;;;;2063899;28;20034;-72
2021/05/30 01:43:11;;;;;;;23.92;15.65;;;8.90;96.30;;;;;;2055934;28;20402;-72
2021/05/30 01:44:12;;;;;;;24.92;15.43;;;8.80;96.50;;;;;;2055096;28;20035;-72
2021/05/30 01:45:13;;;;;;;23.20;15.63;;;8.90;96.70;;;;;;2064383;28;20038;-72
2021/05/30 01:46:14;;;;;;;22.98;14.80;;;8.90;96.70;;;;;;2055927;28;20113;-72
2021/05/30 01:47:14;;;;;;;24.70;15.35;;;8.80;96.80;;;;;;2055935;28;20499;-71
2021/05/30 01:48:15;;;;;;;23.20;15.20;;;8.80;97.00;;;;;;2063966;28;20070;-72
2021/05/30 01:49:17;;;;;;;25.40;16.40;;;8.80;97.20;;;;;;2064574;28;20394;-73
2021/05/30 01:50:20;;;;;;;24.80;15.75;;;8.80;97.40;;;;;;2064550;28;20443;-73
2021/05/30 01:51:20;;;;;;;23.40;15.60;;;8.80;97.50;;;;;;2064585;28;20175;-72
2021/05/30 01:52:21;;;;;;;23.90;15.55;;;8.70;97.20;;;;;;2064588;28;20180;-72
2021/05/30 01:53:32;;;;;;;23.02;15.70;;;8.70;97.20;;;;;;2064556;28;20033;-72
2021/05/30 01:54:33;;;;;;;;;;;8.70;97.50;;;;;;2064201;28;20425;-72
2021/05/30 01:56:57;;;;;;;21.90;14.40;;;8.60;97.00;;;;;;2064679;28;20026;-71
2021/05/30 01:57:58;;;;;;;24.83;15.43;;;8.60;97.00;;;;;;2064689;28;20022;-71
2021/05/30 01:59:02;;;;;;;21.77;14.00;;;8.60;96.70;;;;;;2064408;28;20696;-71
2021/05/30 02:00:03;;;;;;;23.58;14.32;;;8.60;96.50;;;;;;2064465;28;20034;-72
2021/05/30 02:01:15;;;;;;;19.30;13.20;;;8.60;96.60;;;;;;2064621;28;20034;-70
2021/05/30 02:02:16;;;;;;;20.13;13.70;;;8.60;96.70;;;;;;2064490;28;20053;-71
2021/05/30 02:03:18;;;;;;;20.60;12.85;;;8.60;96.50;;;;;;2064423;28;20178;-71
2021/05/30 02:04:22;;;;;;;17.67;12.43;;;8.50;96.20;;;;;;2063502;28;20037;-73
2021/05/30 02:05:24;;;;;;;16.77;11.35;;;8.50;96.10;;;;;;2064319;28;20564;-70
2021/05/30 02:06:25;;;;;;;17.55;11.85;;;8.50;95.90;;;;;;2063976;28;20065;-71
2021/05/30 02:07:26;;;;;;;16.38;11.30;;;8.50;95.70;;;;;;2064282;28;20153;-71
2021/05/30 02:08:27;;;;;;;16.35;11.23;;;8.50;95.70;;;;;;2064362;28;20482;-72
2021/05/30 02:09:29;;;;;;;15.75;10.93;;;8.40;95.70;;;;;;2064469;28;20044;-71
2021/05/30 02:10:30;;;;;;;15.25;11.07;;;8.40;95.70;;;;;;2055786;28;20038;-72
2021/05/30 02:11:32;;;;;;;16.30;11.25;;;8.40;95.60;;;;;;2055743;28;20097;-71
2021/05/30 02:12:34;;;;;;;16.33;10.70;;;8.40;95.10;;;;;;2047596;28;20058;-72
2021/05/30 02:13:35;;;;;;;15.55;10.57;;;8.40;95.20;;;;;;2048122;28;20447;-71
2021/05/30 02:14:35;;;;;;;16.65;11.20;;;8.40;95.20;;;;;;2063510;28;20081;-72
2021/05/30 02:15:36;;;;;;;18.40;11.95;;;8.40;95.20;;;;;;2064318;28;20034;-71
2021/05/30 02:16:38;;;;;;;18.60;12.52;;;8.40;95.60;;;;;;2064264;28;20034;-71
2021/05/30 02:17:39;;;;;;;18.40;12.18;;;8.40;95.80;;;;;;2064291;28;20068;-71
2021/05/30 02:18:40;;;;;;;17.98;11.85;;;8.40;95.80;;;;;;2064304;28;20400;-71
2021/05/30 02:19:40;;;;;;;16.77;12.00;;;8.40;95.70;;;;;;2063534;28;20035;-72
2021/05/30 02:20:41;;;;;;;16.38;11.40;;;8.40;95.60;;;;;;2063756;28;20025;-71
2021/05/30 02:21:43;;;;;;;17.52;11.98;;;8.40;95.70;;;;;;2064334;28;20027;-71
2021/05/30 02:22:44;;;;;;;17.15;11.68;;;8.40;95.50;;;;;;2064270;28;20037;-70
2021/05/30 02:23:44;;;;;;;15.88;11.27;;;8.40;95.40;;;;;;2064242;28;20050;-71
2021/05/30 02:24:45;;;;;;;18.30;11.20;;;8.40;95.20;;;;;;2063543;28;20030;-71
2021/05/30 02:25:46;;;;;;;17.75;11.23;;;8.50;94.90;;;;;;2064216;28;20030;-71
2021/05/30 02:26:47;;;;;;;15.38;10.93;;;8.50;94.90;;;;;;2064325;28;20053;-71
2021/05/30 02:27:50;;;;;;;16.73;10.45;;;8.50;94.70;;;;;;2064247;28;20461;-71
2021/05/30 02:28:51;;;;;;;15.88;10.52;;;8.60;94.20;;;;;;2064393;28;20172;-72
2021/05/30 02:29:51;;;;;;;14.40;10.27;;;8.60;94.20;;;;;;2064193;28;20026;-72
2021/05/30 02:30:52;;;;;;;13.55;9.98;;;8.70;93.90;;;;;;2064351;28;20509;-72
2021/05/30 02:31:52;;;;;;;16.45;9.52;;;8.70;93.70;;;;;;2064319;28;20040;-73
2021/05/30 02:32:53;;;;;;;13.13;10.00;;;8.70;93.40;;;;;;2055470;28;20418;-70
2021/05/30 02:33:54;;;;;;;13.30;9.60;;;8.70;93.60;;;;;;2055739;28;20070;-70
2021/05/30 02:34:54;;;;;;;12.73;9.25;;;8.80;93.80;;;;;;2061160;28;20116;-71
2021/05/30 02:35:56;;;;;;;12.75;9.23;;;8.80;93.90;;;;;;2058057;28;20026;-70
2021/05/30 02:36:56;;;;;;;12.45;9.43;;;8.90;94.00;;;;;;2060688;28;20839;-71
2021/05/30 02:37:57;;;;;;;13.13;9.27;;;8.90;94.10;;;;;;2055520;28;20098;-71
2021/05/30 02:38:58;;;;;;;12.85;9.80;;;8.90;93.80;;;;;;2055496;28;20098;-69
2021/05/30 02:39:58;;;;;;;13.77;9.68;;;8.90;93.70;;;;;;2055385;28;20105;-70
2021/05/30 02:40:59;;;;;;;13.32;9.43;;;8.90;93.60;;;;;;2064050;28;20044;-70
2021/05/30 02:42:00;;;;;;;13.38;9.63;;;8.90;93.60;;;;;;2064109;28;20045;-69
2021/05/30 02:43:01;;;;;;;15.73;9.32;;;8.90;93.50;;;;;;2064204;28;20023;-72
2021/05/30 02:44:01;;;;;;;12.70;9.38;;;8.90;93.40;;;;;;2064165;28;20042;-72
2021/05/30 02:45:05;;;;;;;13.05;9.32;;;8.90;93.50;;;;;;2063540;28;20041;-69
2021/05/30 02:46:05;;;;;;;13.68;9.25;;;8.90;93.40;;;;;;2055487;28;20038;-70
2021/05/30 02:47:06;;;;;;;13.93;9.23;;;8.90;93.30;;;;;;2055474;28;20442;-70
2021/05/30 02:48:07;;;;;;;14.02;9.50;;;8.90;93.20;;;;;;2064066;28;20038;-71
2021/05/30 02:49:08;;;;;;;13.13;10.00;;;8.90;93.20;;;;;;2064097;28;20061;-72
2021/05/30 02:50:09;;;;;;;13.60;9.85;;;8.80;93.40;;;;;;2064147;28;20030;-72
2021/05/30 02:51:10;;;;;;;12.93;9.65;;;8.80;93.60;;;;;;2063435;28;20430;-71
2021/05/30 02:52:10;;;;;;;13.52;9.80;;;8.80;93.70;;;;;;2063750;28;20042;-72
2021/05/30 02:53:11;;;;;;;14.35;9.27;;;8.70;93.70;;;;;;2064114;28;20447;-71
2021/05/30 02:54:11;;;;;;;15.60;9.65;;;8.70;93.80;;;;;;2063317;28;20060;-72
2021/05/30 02:55:12;;;;;;;12.35;9.23;;;8.70;93.90;;;;;;2063831;28;20022;-70
2021/05/30 02:56:13;;;;;;;14.23;9.80;;;8.60;93.90;;;;;;2055338;28;20046;-71
2021/05/30 02:57:14;;;;;;;13.25;9.65;;;8.60;94.00;;;;;;2047466;29;20428;-70
2021/05/30 02:58:14;;;;;;;11.70;9.20;;;8.50;94.10;;;;;;2055412;28;20026;-70
2021/05/30 02:59:15;;;;;;;14.40;9.98;;;8.50;94.20;;;;;;2064104;28;20566;-70
2021/05/30 03:00:17;;;;;;;13.48;9.60;;;8.50;94.40;;;;;;2064062;28;20042;-71
2021/05/30 03:01:17;;;;;;;13.75;9.80;;;8.40;94.50;;;;;;2055368;28;20041;-70
2021/05/30 03:02:18;;;;;;;13.63;9.90;;;8.40;94.70;;;;;;2055404;28;20520;-70
2021/05/30 03:03:19;;;;;;;15.25;9.93;;;8.30;94.70;;;;;;2055518;28;20038;-70
2021/05/30 03:04:20;;;;;;;14.27;10.05;;;8.30;94.90;;;;;;2062477;28;20069;-72
2021/05/30 03:05:20;;;;;;;13.63;10.05;;;8.20;95.00;;;;;;2063620;28;20027;-70
2021/05/30 03:06:24;;;;;;;15.80;10.27;;;8.20;95.20;;;;;;2064123;28;20493;-71
2021/05/30 03:07:25;;;;;;;17.33;10.40;;;8.20;95.30;;;;;;2056643;28;20515;-71
2021/05/30 03:08:25;;;;;;;14.95;10.10;;;8.20;95.10;;;;;;2055481;28;20158;-71
2021/05/30 03:09:26;;;;;;;14.88;9.57;;;8.20;95.00;;;;;;2064077;28;20441;-71
2021/05/30 03:10:27;;;;;;;13.77;9.45;;;8.10;94.70;;;;;;2063953;28;20038;-72
2021/05/30 03:11:28;;;;;;;15.15;10.05;;;8.10;94.70;;;;;;2064114;28;20030;-71
2021/05/30 03:12:28;;;;;;;13.93;10.02;;;8.10;94.60;;;;;;2063944;28;20097;-70
2021/05/30 03:13:29;;;;;;;15.13;10.15;;;8.10;94.60;;;;;;2063971;28;20025;-70
2021/05/30 03:14:30;;;;;;;15.85;10.40;;;8.10;94.50;;;;;;2054395;28;20045;-69
2021/05/30 03:15:30;;;;;;;14.27;9.82;;;8.00;94.40;;;;;;2055438;28;20023;-70
2021/05/30 03:16:31;;;;;;;12.02;9.85;;;8.10;94.30;;;;;;2063990;28;20033;-70
2021/05/30 03:17:32;;;;;;;14.70;9.73;;;8.00;94.20;;;;;;2064056;28;20022;-70
2021/05/30 03:18:32;;;;;;;13.38;9.82;;;8.00;94.10;;;;;;2064028;28;20036;-69
2021/05/30 03:19:33;;;;;;;13.32;9.38;;;8.00;94.20;;;;;;2063967;28;20027;-70
2021/05/30 03:20:33;;;;;;;14.05;9.55;;;8.10;94.30;;;;;;2063766;28;20030;-70
2021/05/30 03:21:34;;;;;;;13.65;9.90;;;8.00;94.40;;;;;;2063871;28;20502;-70
2021/05/30 03:22:35;;;;;;;13.75;10.05;;;8.00;94.20;;;;;;2063838;28;20035;-70
2021/05/30 03:23:36;;;;;;;14.05;9.95;;;8.10;93.90;;;;;;2055205;28;20037;-70
2021/05/30 03:24:37;;;;;;;14.32;9.60;;;8.00;93.80;;;;;;2054295;28;20070;-71
2021/05/30 03:25:38;;;;;;;13.15;9.93;;;8.10;93.80;;;;;;2055161;28;20027;-70
2021/05/30 03:26:38;;;;;;;15.88;10.52;;;8.10;93.80;;;;;;2055189;28;20045;-70
2021/05/30 03:27:39;;;;;;;17.38;10.85;;;8.10;94.00;;;;;;2055313;28;20122;-70
2021/05/30 03:28:40;;;;;;;13.77;9.90;;;8.10;93.60;;;;;;2063905;28;20142;-70
2021/05/30 03:29:40;;;;;;;15.70;10.48;;;8.00;93.60;;;;;;2063754;28;20026;-70
2021/05/30 03:30:41;;;;;;;13.95;10.23;;;8.00;93.70;;;;;;2063728;28;20023;-70
2021/05/30 03:31:42;;;;;;;14.80;10.30;;;8.10;93.70;;;;;;2063036;28;20022;-69
2021/05/30 03:32:43;;;;;;;15.65;10.55;;;8.10;93.70;;;;;;2063227;28;20441;-70
2021/05/30 03:33:43;;;;;;;15.82;10.88;;;8.10;93.80;;;;;;2063920;28;20491;-70
2021/05/30 03:34:44;;;;;;;15.80;10.63;;;8.10;93.90;;;;;;2060604;28;20027;-70
2021/05/30 03:35:45;;;;;;;15.70;10.40;;;8.10;93.90;;;;;;2063838;28;20026;-70
2021/05/30 03:36:49;;;;;;;15.07;10.30;;;8.10;93.90;;;;;;2063882;28;20402;-70
2021/05/30 03:37:50;;;;;;;14.57;10.57;;;8.10;93.90;;;;;;2063959;28;20033;-69
2021/05/30 03:38:59;;;;;;;16.42;10.82;;;8.10;93.60;;;;;;2063695;28;20033;-70
2021/05/30 03:40:05;;;;;;;15.27;9.88;;;8.10;93.60;;;;;;2064007;28;20050;-70
2021/05/30 03:41:08;;;;;;;14.75;9.77;;;8.10;93.50;;;;;;2064118;28;20031;-70
2021/05/30 03:42:18;;;;;;;14.98;10.10;;;8.10;93.50;;;;;;2063929;28;20120;-70
2021/05/30 03:43:18;;;;;;;13.50;9.50;;;8.10;93.50;;;;;;2063283;28;20058;-71
2021/05/30 03:44:19;;;;;;;14.25;9.55;;;8.10;93.30;;;;;;2062509;28;20035;-70
2021/05/30 03:45:21;;;;;;;14.07;9.70;;;8.20;93.40;;;;;;2063798;28;20046;-70
2021/05/30 03:46:21;;;;;;;11.98;9.18;;;8.20;93.20;;;;;;2063828;28;20036;-70
2021/05/30 03:47:22;;;;;;;14.15;9.32;;;8.20;93.10;;;;;;2063765;28;20777;-70
2021/05/30 03:48:23;;;;;;;14.73;9.52;;;8.20;93.00;;;;;;2064013;28;20399;-70
2021/05/30 03:49:24;;;;;;;13.60;9.32;;;8.20;92.90;;;;;;2063789;28;20477;-70
2021/05/30 03:50:24;;;;;;;12.18;9.00;;;8.20;93.00;;;;;;2063951;28;20042;-70
2021/05/30 03:51:25;;;;;;;13.70;9.18;;;8.20;92.90;;;;;;2063913;28;20053;-70
2021/05/30 03:52:26;;;;;;;12.52;9.43;;;8.30;92.90;;;;;;2063970;28;20089;-70
2021/05/30 03:53:26;;;;;;;12.05;8.55;;;8.30;92.70;;;;;;2064004;28;20022;-70
2021/05/30 03:54:27;;;;;;;12.85;8.88;;;8.30;92.60;;;;;;2062938;28;20486;-70
2021/05/30 03:55:28;;;;;;;14.90;9.13;;;8.30;92.50;;;;;;2055093;28;20332;-69
2021/05/30 03:56:28;;;;;;;13.18;8.93;;;8.30;92.40;;;;;;2055192;28;20045;-70
2021/05/30 03:57:31;;;;;;;13.85;9.43;;;8.30;92.10;;;;;;2055215;28;20478;-70
2021/05/30 03:58:31;;;;;;;11.65;8.32;;;8.30;92.00;;;;;;2055130;28;20023;-70
2021/05/30 03:59:32;;;;;;;12.00;8.75;;;8.40;92.00;;;;;;2055264;28;20472;-70
2021/05/30 04:00:32;;;;;;;10.65;8.35;;;8.40;91.80;;;;;;2055131;28;20851;-70
2021/05/30 04:01:35;;;;;;;11.75;8.55;;;8.40;91.60;;;;;;2055182;28;20034;-70
2021/05/30 04:02:35;;;;;;;10.77;8.25;;;8.50;91.60;;;;;;2064073;28;20113;-70
2021/05/30 04:03:36;;;;;;;12.30;8.40;;;8.60;91.40;;;;;;2065388;28;20034;-70
2021/05/30 04:04:37;;;;;;;10.75;7.82;;;8.80;91.10;;;;;;2061957;28;20084;-70
2021/05/30 04:05:37;;;;;;;12.07;7.90;;;8.90;90.80;;;;;;2065393;28;20109;-70
2021/05/30 04:06:38;;;;;;;11.43;7.60;;;9.10;89.00;;;;;;2065132;28;20444;-70
2021/05/30 04:07:39;;;;;;;11.32;8.10;;;9.40;89.30;;;;;;2056644;28;20039;-70
2021/05/30 04:08:40;;;;;;;8.75;7.13;;;9.80;88.50;;;;;;2056708;28;20034;-70
2021/05/30 04:09:40;;;;;;;10.80;7.20;;;10.30;87.20;;;;;;2065399;28;20038;-71
2021/05/30 04:10:44;;;;;;;8.38;6.57;;;10.90;84.50;;;;;;2056726;28;20058;-70
2021/05/30 04:11:44;;;;;;;10.25;6.70;;;11.40;82.40;;;;;;2057041;28;20038;-70
2021/05/30 04:12:45;;;;;;;8.15;6.45;;;11.90;79.70;;;;;;2065582;28;20190;-70
2021/05/30 04:13:46;;;;;;;7.40;6.50;;;12.30;77.30;;;;;;2065411;28;20405;-70
2021/05/30 04:14:47;;;;;;;8.73;6.10;;;12.80;75.00;;;;;;2064702;28;20120;-70
2021/05/30 04:15:47;;;;;;;7.95;6.32;;;13.20;72.80;;;;;;2056625;28;20055;-70
2021/05/30 04:16:48;;;;;;;7.38;5.80;;;13.60;70.60;;;;;;2056685;28;20027;-70
2021/05/30 04:17:48;;;;;;;7.05;5.90;;;13.90;69.20;;;;;;2065188;28;20026;-70
2021/05/30 04:18:49;;;;;;;7.88;6.07;;;14.20;67.80;;;;;;2056733;28;20466;-70
2021/05/30 04:19:50;;;;;;;8.88;5.90;;;14.60;66.50;;;;;;2056628;28;20367;-70
2021/05/30 04:20:50;;;;;;;7.63;6.03;;;14.80;65.20;;;;;;2065255;28;20022;-71
2021/05/30 04:21:51;;;;;;;7.90;6.10;;;15.10;63.60;;;;;;2065166;28;20030;-70
2021/05/30 04:22:52;;;;;;;6.85;5.55;;;15.30;62.20;;;;;;2065141;28;20027;-70
2021/05/30 04:23:52;;;;;;;7.15;5.60;;;15.50;61.70;;;;;;2065176;28;20371;-70
2021/05/30 04:24:53;;;;;;;6.50;5.22;;;15.70;60.10;;;;;;2064455;28;20065;-70
2021/05/30 04:25:53;;;;;;;5.28;4.78;;;15.90;59.10;;;;;;2056493;28;20035;-70
2021/05/30 04:26:54;;;;;;;5.50;4.88;;;16.10;57.80;;;;;;2056727;28;20643;-70
2021/05/30 04:27:55;;;;;;;5.22;4.47;;;16.20;56.90;;;;;;2065455;28;20536;-70
2021/05/30 04:28:55;;;;;;;5.20;4.40;;;16.40;56.00;;;;;;2065244;28;20033;-72
2021/05/30 04:29:56;;;;;;;5.28;4.78;;;16.50;55.50;;;;;;2065085;28;20129;-71
2021/05/30 04:30:56;;;;;;;6.88;4.90;;;16.60;55.80;;;;;;2065105;28;20029;-71
2021/05/30 04:31:59;;;;;;;6.03;5.00;;;16.60;54.90;;;;;;2065177;28;20042;-71
2021/05/30 04:32:59;;;;;;;7.22;5.60;;;16.70;54.80;;;;;;2065194;28;20104;-72
2021/05/30 04:34:00;;;;;;;6.97;5.60;;;16.70;54.70;;;;;;2065133;28;20050;-72
2021/05/30 04:35:02;;;;;;;6.53;5.43;;;16.80;55.00;;;;;;2062075;28;20026;-72
2021/05/30 04:36:03;;;;;;;7.45;5.50;;;16.90;54.70;;;;;;2065037;28;20386;-72
2021/05/30 04:37:04;;;;;;;7.68;5.22;;;17.00;54.60;;;;;;2060432;28;20029;-72
2021/05/30 04:38:05;;;;;;;7.68;4.80;;;17.00;54.50;;;;;;2056509;28;20050;-72
2021/05/30 04:39:05;;;;;;;7.03;5.25;;;17.10;54.40;;;;;;2065347;28;20037;-71
2021/05/30 04:40:07;;;;;;;5.55;4.95;;;17.20;54.30;;;;;;2065467;28;20027;-72
2021/05/30 04:41:07;;;;;;;6.72;5.45;;;17.30;54.20;;;;;;2065138;28;20036;-71
2021/05/30 04:42:08;;;;;;;7.00;5.40;;;17.40;54.00;;;;;;2065125;28;20367;-70
2021/05/30 04:43:09;;;;;;;7.30;5.43;;;17.10;52.70;;;;;;2056393;28;20023;-71
2021/05/30 04:44:09;;;;;;;6.85;5.20;;;17.10;53.40;;;;;;2055684;28;20406;-71
2021/05/30 04:45:10;;;;;;;6.95;5.30;;;17.20;53.50;;;;;;2064900;28;20043;-71
2021/05/30 04:46:11;;;;;;;6.65;5.00;;;17.30;53.60;;;;;;2065107;28;20040;-71
2021/05/30 04:47:12;;;;;;;7.60;5.32;;;17.30;53.30;;;;;;2065333;28;20062;-73
2021/05/30 04:48:13;;;;;;;7.35;5.05;;;17.50;53.30;;;;;;2065203;28;20493;-72
2021/05/30 04:49:13;;;;;;;5.78;4.75;;;17.60;52.90;;;;;;2065121;28;20030;-72
2021/05/30 04:50:15;;;;;;;5.85;5.07;;;17.70;52.60;;;;;;2065001;28;20038;-73
2021/05/30 04:51:15;;;;;;;5.40;4.80;;;17.80;52.30;;;;;;2065182;28;20038;-72
2021/05/30 04:52:16;;;;;;;6.00;4.82;;;17.80;52.20;;;;;;2064999;28;20045;-73
2021/05/30 04:53:16;;;;;;;5.57;4.70;;;17.80;52.40;;;;;;2065078;28;20073;-72
2021/05/30 04:54:17;;;;;;;6.22;4.57;;;18.00;52.20;;;;;;2064172;28;20034;-72
2021/05/30 04:55:18;;;;;;;5.72;4.22;;;18.00;50.80;;;;;;2065027;28;20045;-72
2021/05/30 04:56:21;;;;;;;5.93;3.80;;;17.90;50.50;;;;;;2064990;28;20054;-73
2021/05/30 04:57:21;;;;;;;5.55;4.30;;;17.90;50.70;;;;;;2056334;28;20031;-70
2021/05/30 04:58:22;;;;;;;7.05;4.40;;;18.10;50.30;;;;;;2056324;28;20023;-71
2021/05/30 04:59:23;;;;;;;4.38;3.97;;;18.30;49.70;;;;;;2056440;28;20031;-70
2021/05/30 05:00:23;;;;;;;5.15;4.03;;;18.50;49.10;;;;;;2056258;28;20034;-71
2021/05/30 05:01:24;;;;;;;5.25;3.65;;;18.60;48.90;;;;;;2064995;28;20026;-72
2021/05/30 05:02:24;;;;;;;5.85;4.00;;;18.60;48.80;;;;;;2064931;28;20478;-71
2021/05/30 05:03:25;;;;;;;4.75;3.80;;;18.70;48.70;;;;;;2065012;28;20056;-71
2021/05/30 05:04:25;;;;;;;5.85;4.03;;;18.80;48.50;;;;;;2054214;28;20038;-71
2021/05/30 05:05:28;;;;;;;6.10;4.18;;;18.80;48.40;;;;;;2055125;28;20498;-68
2021/05/30 05:06:28;;;;;;;5.00;4.28;;;18.70;48.30;;;;;;2064719;28;20391;-69
2021/05/30 05:07:29;;;;;;;6.40;4.70;;;18.70;48.40;;;;;;2064738;28;20061;-69
2021/05/30 05:08:30;;;;;;;4.63;3.72;;;18.20;48.70;;;;;;2055994;28;20062;-69
2021/05/30 05:09:30;;;;;;;7.43;4.75;;;18.40;49.30;;;;;;2048107;28;20069;-71
2021/05/30 05:10:31;;;;;;;6.45;4.32;;;18.50;48.60;;;;;;2056184;28;20073;-70
2021/05/30 05:11:31;;;;;;;5.95;4.78;;;18.60;48.60;;;;;;2064938;28;20030;-70
2021/05/30 05:12:32;;;;;;;6.30;4.65;;;18.30;48.70;;;;;;2056012;28;20027;-68
2021/05/30 05:13:33;;;;;;;6.65;4.90;;;18.20;49.30;;;;;;2056102;28;20050;-70
2021/05/30 05:14:33;;;;;;;7.00;4.80;;;17.60;50.30;;;;;;2062946;28;20025;-71
2021/05/30 05:15:34;;;;;;;5.78;4.40;;;17.60;50.90;;;;;;2064839;28;20026;-71
2021/05/30 05:16:34;;;;;;;5.43;4.70;;;17.80;51.00;;;;;;2064749;28;20824;-69